Ana Sayfa
METAR-TAF:

METAR-TAF

Havaalanları :

Barrow Island, Avustralya

Enlem: 20-51-57S, Boylam: 115-24-17E, yükseklik: 8 m

Güncel hava durumu gözlemi

Rapor saat 13:00 UTC de 10 dakika önce yapıldı.
Rüzgar batı/kuzeybatıdan 2 kt
Sıcaklık 18°C
Nem 56%
Basınç 1018 hPa

METAR: YBWX 171300Z AUTO 30002KT //// // ////// 18/09 Q1018

Saat: 21:10 (13:10 UTC)


TAF: eksik

4.000'den fazla havaalanı için hava durumu gözlemleri ve tahminleri (METAR ve TAF raporları).

Kullanılabilir istasyonlar harita üzerinde sarı ve kırmızı noktalarla gösterilir.

İstasyonun adını görmek için fareyi noktanın üzerinde gezdirin.

Sonrasında hava gözlem ve tahminlerini görmek için tıklayın.

Haritayı değiştirmek için: yaklaştırmak için siyah artı işaretli yeşil düğmeye ve uzaklaştırmak için de eksi işaretli düğmeye hızla tıklayın; bitişik haritalar için yeşil okları kullanın.


METAR-TAF: